This is the latest recevied weather packets stored in our database for station/object KI4LFI. If no packets are shown the sender has not sent any weather packets the latest 10 day(s).
| Time | Temp. | Humidity | Pressure | Rain* | Wind** | Luminosity | Snow |
|---|---|---|---|---|---|---|---|
| 1777971642 | 8.89° C | 97% | 1014.2 hPa | 0 mm | - | - | - |
| 1777968937 | 8.89° C | 96% | 1013.7 hPa | 0 mm | - | - | - |
| 1777965338 | 10° C | 96% | 1014.5 hPa | 0 mm | - | - | - |
| 1777962635 | 10.56° C | 93% | 1014.8 hPa | 0 mm | - | - | - |
| 1777945540 | 18.89° C | 64% | 1015.1 hPa | 0 mm | - | - | - |
| 1777944643 | 19.44° C | 63% | 1015 hPa | 0 mm | - | - | - |
| 1777942843 | 20.56° C | 59% | 1014.8 hPa | 0 mm | - | - | - |
| 1777941036 | 21.67° C | 56% | 1014.6 hPa | 0 mm | - | - | - |
| 1777940138 | 22.22° C | 53% | 1014.4 hPa | 0 mm | - | - | - |
| 1777930244 | 27.78° C | 39% | 1014.2 hPa | 0 mm | - | - | - |
| 1777929340 | 27.22° C | 38% | 1014.2 hPa | 0 mm | - | - | - |
| 1777925745 | 26.67° C | 42% | 1014.8 hPa | 0 mm | - | - | - |
| 1777923044 | 26.67° C | 42% | 1015.6 hPa | 0 mm | - | - | - |
| 1777920351 | 26.67° C | 40% | 1016.2 hPa | 0 mm | - | - | - |
| 1777919438 | 26.67° C | 44% | 1016.4 hPa | 0 mm | - | - | - |
| 1777915838 | 25.56° C | 44% | 1017.2 hPa | 0 mm | - | - | - |
| 1777908643 | 23.89° C | 51% | 1018.3 hPa | 0 mm | - | - | - |
| 1777907744 | 23.89° C | 51% | 1018.2 hPa | 0 mm | - | - | - |
| 1777896939 | 8.89° C | 100% | 1018 hPa | 0 mm | - | - | - |
| 1777895139 | 7.22° C | 99% | 1018 hPa | 0 mm | - | - | - |
| 1777894236 | 7.22° C | 99% | 1018 hPa | 0 mm | - | - | - |
| 1777892437 | 7.22° C | 99% | 1017.9 hPa | 0 mm | - | - | - |
| 1777886148 | 7.78° C | 98% | 1018 hPa | 0 mm | - | - | - |
| 1777881647 | 8.33° C | 97% | 1018 hPa | 0 mm | - | - | - |
| 1777877140 | 8.33° C | 96% | 1018.5 hPa | 0 mm | - | - | - |
* Rain latest hour (hover to see other rain measurements)
** Current wind speed in m/s (hover to see current wind gust speed)